North Monmouth, ME (04265)

6:33 PM EDT on August 30, 2016 (GMT -0400)
Sanborn Fields | | Change Station

Elev 212 ft 44.24 °N, 70.03 °W | Updated 15 seconds ago

Partly Cloudy
Partly Cloudy
70.9 °F
Feels Like 76 °F
N
4.0
Wind Variable Wind from SSW
Gusts 5.0 mph

Today
High -- | Low -- °F
--% Chance of Precip.
Yesterday
High -- | Low -- °F
Precip. -- in
Pressure 30.04 in
Visibility 10.0 miles
Clouds Few 12000 ft
Heat Index 76 °F
Dew Point 57 °F
Humidity 61%
Rainfall 0.00 in
Snow Depth Not available.
6:01 AM 7:19 PM
Waning Crescent, 2% visible
METAR KAUG 302153Z AUTO 20007KT 10SM FEW120 22/11 A3003 RMK AO2 SLP170 T02220111
Pressure 30.04 in
Visibility 10.0 miles
Clouds Few 12000 ft
Heat Index 76 °F
Dew Point 57 °F
Humidity 61%
Rainfall 0.00 in
Snow Depth Not available.
6:01 AM 7:19 PM
Waning Crescent, 2% visible
METAR KAUG 302153Z AUTO 20007KT 10SM FEW120 22/11 A3003 RMK AO2 SLP170 T02220111

10-Day Weather Forecast

Almanac

Astronomy

Aug. 30, 2016 Rise Set
Actual Time
Civil Twilight
Nautical Twilight
Astronomical Twilight
Moon
Length of Visible Light
Length of Day
Tomorrow will be .
, % of the Moon is Illuminated

Today's Extremes

State Highs State Lows

Community

WunderPhotos

Upload Photos

1,935,914 photos uploaded!

WunderBlog® & News

Nearby

Air Quality

  Air Quality AQ Index Pollutant
Not available.

Snow Depth

Station Depth Elevation

Earthquake Activity

City Distance Mag. Time & Date
Minimum magnitude displayed is 2.5.

Coastal Water Temperatures

Place Temperature

Stations

Nearby Weather Stations

Station Location Temp. Windchill Dew Point Humidity Wind Precip. Elev Updated Type
                   

Watches & Warnings

There are currently no watches in effect.